createdAt,value
2023-12-01T00:00:19.386Z,100662.97
2023-12-01T00:02:46.570Z,100665.72
2023-12-01T00:05:13.806Z,100673.59
2023-12-01T00:07:40.963Z,100672.06
2023-12-01T00:10:13.215Z,100672.94
2023-12-01T00:12:40.424Z,100678.13
2023-12-01T00:15:07.965Z,100667.75
2023-12-01T00:17:35.413Z,100669.63
2023-12-01T00:20:02.662Z,100666.28
2023-12-01T00:22:29.810Z,100662.78
2023-12-01T00:24:56.881Z,100675.78
2023-12-01T00:27:23.969Z,100668.09
2023-12-01T00:29:51.033Z,100664.63
2023-12-01T00:32:18.287Z,100660.28
2023-12-01T00:34:45.400Z,100638.47
2023-12-01T00:37:12.611Z,100666.34
2023-12-01T00:39:39.699Z,100663.78
2023-12-01T00:42:07.846Z,100672.47
2023-12-01T00:44:34.980Z,100668.31
2023-12-01T00:47:02.187Z,100664.06
2023-12-01T00:49:29.502Z,100662.38
2023-12-01T00:51:56.670Z,100664.22
2023-12-01T00:54:24.522Z,100664.28
2023-12-01T00:56:51.602Z,100665.09
2023-12-01T00:59:18.674Z,100659.16
2023-12-01T01:01:45.878Z,100660.06
2023-12-01T01:04:13.480Z,100669.53
2023-12-01T01:06:40.874Z,100667.84
2023-12-01T01:09:08.191Z,100653.09
2023-12-01T01:11:36.400Z,100667.91
2023-12-01T01:14:03.544Z,100672.25
2023-12-01T01:16:30.790Z,100680.03
2023-12-01T01:18:57.996Z,100675.75
2023-12-01T01:21:25.083Z,100673.25
2023-12-01T01:23:52.276Z,100674.13
2023-12-01T01:26:19.375Z,100667.13
2023-12-01T01:28:46.450Z,100672.31
2023-12-01T01:31:13.684Z,100676.56
2023-12-01T01:33:40.799Z,100668.81
2023-12-01T01:36:08.849Z,100669.53
2023-12-01T01:38:35.972Z,100673.84
2023-12-01T01:41:03.267Z,100661.59
2023-12-01T01:43:30.478Z,100670.34
2023-12-01T01:46:06.788Z,100667.72
2023-12-01T01:48:35.852Z,100662.47
2023-12-01T01:51:07.960Z,100666.75
2023-12-01T01:53:42.429Z,100667.63
2023-12-01T01:56:13.725Z,100658.13
2023-12-01T01:58:42.843Z,100665.16
2023-12-01T02:01:10.169Z,100666.94
2023-12-01T02:03:38.407Z,100660.94
2023-12-01T02:06:09.335Z,100663.56
2023-12-01T02:08:40.290Z,100653.28
2023-12-01T02:11:07.533Z,100648.16
2023-12-01T02:13:34.965Z,100662.97
2023-12-01T02:16:02.356Z,100659.59
2023-12-01T02:18:32.030Z,100648.31
2023-12-01T02:21:00.108Z,100662.31
2023-12-01T02:23:28.489Z,100661.53
2023-12-01T02:25:55.766Z,100657.34
2023-12-01T02:28:22.936Z,100654.06
2023-12-01T02:30:54.247Z,100660.19
2023-12-01T02:33:23.437Z,100651.59
2023-12-01T02:35:53.504Z,100652.63
2023-12-01T02:38:21.692Z,100644.75
2023-12-01T02:40:52.450Z,100657.88
2023-12-01T02:43:22.268Z,100662.19
2023-12-01T02:45:50.346Z,100651.81
2023-12-01T02:48:18.214Z,100657.25
2023-12-01T02:50:46.597Z,100658.13
2023-12-01T02:53:14.453Z,100653.81
2023-12-01T02:55:41.606Z,100658.28
2023-12-01T02:58:08.785Z,100657.47
2023-12-01T03:00:36.531Z,100650.63
2023-12-01T03:03:03.729Z,100657.50
2023-12-01T03:05:30.903Z,100661.00
2023-12-01T03:07:58.089Z,100644.66
2023-12-01T03:10:25.262Z,100656.84
2023-12-01T03:12:52.568Z,100656.06
2023-12-01T03:15:20.989Z,100667.28
2023-12-01T03:17:49.596Z,100657.00
2023-12-01T03:20:17.549Z,100645.78
2023-12-01T03:22:51.673Z,100663.13
2023-12-01T03:25:18.955Z,100664.91
2023-12-01T03:27:49.260Z,100660.63
2023-12-01T03:30:19.499Z,100664.03
2023-12-01T03:32:55.796Z,100665.78
2023-12-01T03:35:25.813Z,100667.53
2023-12-01T03:37:58.244Z,100658.88
2023-12-01T03:40:28.115Z,100670.97
2023-12-01T03:42:56.291Z,100677.03
2023-12-01T03:45:24.049Z,100675.25
2023-12-01T03:47:53.282Z,100688.91
2023-12-01T03:50:21.455Z,100687.84
2023-12-01T03:52:52.222Z,100689.44
2023-12-01T03:55:19.643Z,100672.16
2023-12-01T03:57:47.289Z,100689.53
2023-12-01T04:00:19.670Z,100681.81
2023-12-01T04:02:49.493Z,100658.38
2023-12-01T04:05:22.573Z,100685.28
2023-12-01T04:07:56.802Z,100681.88
2023-12-01T04:10:29.104Z,100681.84
2023-12-01T04:12:56.967Z,100672.22
2023-12-01T04:15:27.366Z,100686.91
2023-12-01T04:17:54.835Z,100676.44
2023-12-01T04:20:22.613Z,100696.38
2023-12-01T04:23:01.482Z,100689.56
2023-12-01T04:25:29.523Z,100687.91
2023-12-01T04:28:00.426Z,100674.22
2023-12-01T04:30:27.776Z,100683.69
2023-12-01T04:32:57.925Z,100676.69
2023-12-01T04:35:33.057Z,100699.34
2023-12-01T04:38:04.452Z,100696.84
2023-12-01T04:40:32.655Z,100692.56
2023-12-01T04:43:00.894Z,100691.75
2023-12-01T04:45:34.179Z,100686.41
2023-12-01T04:48:01.457Z,100696.09
2023-12-01T04:50:31.440Z,100694.41
2023-12-01T04:53:01.983Z,100696.22
2023-12-01T04:55:31.194Z,100703.97
2023-12-01T04:58:01.761Z,100704.03
2023-12-01T05:00:29.332Z,100697.88
2023-12-01T05:03:08.359Z,100705.75
2023-12-01T05:05:38.922Z,100703.00
2023-12-01T05:08:08.939Z,100701.41
2023-12-01T05:10:38.863Z,100714.38
2023-12-01T05:13:09.333Z,100711.03
2023-12-01T05:15:38.665Z,100707.50
2023-12-01T05:18:08.688Z,100713.69
2023-12-01T05:20:36.245Z,100712.81
2023-12-01T05:23:11.460Z,100711.16
2023-12-01T05:25:42.386Z,100721.50
2023-12-01T05:28:11.256Z,100709.47
2023-12-01T05:30:41.968Z,100707.66
2023-12-01T05:33:09.951Z,100719.13
2023-12-01T05:35:39.039Z,100725.19
2023-12-01T05:38:06.555Z,100724.31
2023-12-01T05:40:37.471Z,100716.56
2023-12-01T05:43:08.030Z,100724.47
2023-12-01T05:45:36.880Z,100729.69
2023-12-01T05:48:08.183Z,100714.25
2023-12-01T05:50:36.315Z,100715.13
2023-12-01T05:53:12.223Z,100727.09
2023-12-01T05:55:39.463Z,100725.38
2023-12-01T05:58:14.650Z,100719.22
2023-12-01T06:00:42.815Z,100733.16
2023-12-01T06:03:12.355Z,100734.91
2023-12-01T06:05:40.837Z,100736.66
2023-12-01T06:08:10.156Z,100729.81
2023-12-01T06:10:37.835Z,100733.22
2023-12-01T06:13:08.345Z,100723.69
2023-12-01T06:15:35.613Z,100739.28
2023-12-01T06:18:03.822Z,100732.31
2023-12-01T06:20:32.609Z,100738.41
2023-12-01T06:23:02.979Z,100745.28
2023-12-01T06:25:33.307Z,100734.13
2023-12-01T06:28:04.089Z,100736.59
2023-12-01T06:30:37.958Z,100747.00
2023-12-01T06:33:08.525Z,100749.56
2023-12-01T06:35:36.528Z,100748.69
2023-12-01T06:38:05.023Z,100750.44
2023-12-01T06:40:34.917Z,100748.75
2023-12-01T06:43:12.002Z,100732.13
2023-12-01T06:45:41.557Z,100745.13
2023-12-01T06:48:09.632Z,100750.47
2023-12-01T06:50:36.748Z,100756.50
2023-12-01T06:53:03.851Z,100734.03
2023-12-01T06:55:31.059Z,100749.66
2023-12-01T06:57:58.347Z,100748.75
2023-12-01T07:00:32.692Z,100748.69
2023-12-01T07:03:01.910Z,100760.63
2023-12-01T07:05:30.781Z,100765.69
2023-12-01T07:07:59.855Z,100767.22
2023-12-01T07:10:28.365Z,100774.88
2023-12-01T07:12:57.229Z,100772.22
2023-12-01T07:15:26.237Z,100777.28
2023-12-01T07:17:57.228Z,100790.06
2023-12-01T07:20:25.106Z,100795.94
2023-12-01T07:22:53.884Z,100799.34
2023-12-01T07:25:26.365Z,100790.69
2023-12-01T07:28:06.708Z,100789.81
2023-12-01T07:30:35.052Z,100796.59
2023-12-01T07:33:05.411Z,100791.34
2023-12-01T07:35:32.745Z,100799.91
2023-12-01T07:37:59.852Z,100784.19
2023-12-01T07:40:28.934Z,100803.22
2023-12-01T07:42:58.062Z,100805.81
2023-12-01T07:45:26.583Z,100811.81
2023-12-01T07:47:58.505Z,100812.69
2023-12-01T07:50:27.591Z,100802.16
2023-12-01T07:52:56.598Z,100808.28
2023-12-01T07:55:24.566Z,100822.97
2023-12-01T07:57:52.623Z,100820.41
2023-12-01T08:00:20.475Z,100806.53
2023-12-01T08:02:53.369Z,100819.53
2023-12-01T08:05:21.295Z,100825.63
2023-12-01T08:07:54.345Z,100828.19
2023-12-01T08:10:25.067Z,100829.94
2023-12-01T08:12:58.295Z,100818.66
2023-12-01T08:15:28.940Z,100830.84
2023-12-01T08:17:58.026Z,100830.84
2023-12-01T08:20:25.812Z,100845.63
2023-12-01T08:22:53.182Z,100834.41
2023-12-01T08:25:22.995Z,100833.66
2023-12-01T08:27:53.146Z,100850.09
2023-12-01T08:30:20.846Z,100857.22
2023-12-01T08:32:51.169Z,100853.88
2023-12-01T08:35:18.824Z,100860.97
2023-12-01T08:37:46.133Z,100866.31
2023-12-01T08:40:14.826Z,100869.13
2023-12-01T08:42:43.997Z,100871.84
2023-12-01T08:45:12.526Z,100873.78
2023-12-01T08:47:43.933Z,100875.59
2023-12-01T08:50:12.231Z,100877.59
2023-12-01T08:52:44.786Z,100879.59
2023-12-01T08:55:12.162Z,100876.44
2023-12-01T08:57:39.314Z,100869.78
2023-12-01T09:00:07.948Z,100875.25
2023-12-01T09:02:35.951Z,100868.53
2023-12-01T09:05:04.033Z,100884.44
2023-12-01T09:07:31.138Z,100883.72
2023-12-01T09:10:01.750Z,100891.47
2023-12-01T09:12:29.127Z,100894.19
2023-12-01T09:14:56.500Z,100891.72
2023-12-01T09:17:24.190Z,100884.75
2023-12-01T09:19:51.861Z,100886.63
2023-12-01T09:22:19.217Z,100897.00
2023-12-01T09:24:47.137Z,100901.28
2023-12-01T09:27:14.838Z,100896.00
2023-12-01T09:29:42.355Z,100894.19
2023-12-01T09:32:09.501Z,100905.28
2023-12-01T09:34:36.691Z,100907.00
2023-12-01T09:37:04.085Z,100896.63
2023-12-01T09:39:31.447Z,100900.13
2023-12-01T09:42:07.109Z,100907.97
2023-12-01T09:44:37.574Z,100902.09
2023-12-01T09:47:05.506Z,100888.44
2023-12-01T09:49:35.269Z,100900.00
2023-12-01T09:52:06.648Z,100906.25
2023-12-01T09:54:33.890Z,100898.56
2023-12-01T09:57:10.131Z,100904.63
2023-12-01T09:59:39.299Z,100906.38
2023-12-01T10:02:06.681Z,100899.44
2023-12-01T10:04:34.867Z,100896.69
2023-12-01T10:07:04.476Z,100911.50
2023-12-01T10:09:33.926Z,100907.22
2023-12-01T10:12:10.730Z,100911.47
2023-12-01T10:14:39.612Z,100903.72
2023-12-01T10:17:11.055Z,100898.56
2023-12-01T10:19:48.455Z,100904.63
2023-12-01T10:22:20.768Z,100896.03
2023-12-01T10:24:58.169Z,100895.97
2023-12-01T10:27:25.435Z,100898.56
2023-12-01T10:29:52.590Z,100892.53
2023-12-01T10:32:19.770Z,100895.97
2023-12-01T10:34:53.520Z,100896.13
2023-12-01T10:37:23.330Z,100899.75
2023-12-01T10:39:55.938Z,100899.88
2023-12-01T10:42:24.711Z,100892.97
2023-12-01T10:44:54.021Z,100886.31
2023-12-01T10:47:22.921Z,100885.63
2023-12-01T10:49:51.275Z,100897.00
2023-12-01T10:52:19.294Z,100892.84
2023-12-01T10:54:48.418Z,100902.50
2023-12-01T10:57:39.420Z,100899.25
2023-12-01T11:00:21.318Z,100899.44
2023-12-01T11:02:52.289Z,100901.31
2023-12-01T11:05:20.461Z,100904.06
2023-12-01T11:08:26.066Z,100887.78
2023-12-01T11:11:18.079Z,100898.13
2023-12-01T11:14:18.685Z,100892.88
2023-12-01T11:16:49.980Z,100903.19
2023-12-01T11:19:19.431Z,100910.03
2023-12-01T11:21:57.599Z,100900.44
2023-12-01T11:24:33.137Z,100901.25
2023-12-01T11:27:06.943Z,100901.97
2023-12-01T11:29:38.572Z,100887.13
2023-12-01T11:32:06.527Z,100892.25
2023-12-01T11:34:34.309Z,100893.00
2023-12-01T11:37:06.755Z,100893.78
2023-12-01T11:39:35.684Z,100886.88
2023-12-01T11:42:03.113Z,100895.47
2023-12-01T11:44:38.793Z,100894.56
2023-12-01T11:47:10.154Z,100891.97
2023-12-01T11:49:40.654Z,100887.69
2023-12-01T11:52:20.642Z,100873.81
2023-12-01T11:54:50.621Z,100885.13
2023-12-01T11:57:20.429Z,100883.47
2023-12-01T11:59:49.250Z,100819.88
2023-12-01T12:02:16.782Z,100880.09
2023-12-01T12:04:50.307Z,100872.41
2023-12-01T12:07:18.464Z,100878.47
2023-12-01T12:09:46.845Z,100876.81
2023-12-01T12:12:16.190Z,100885.50
2023-12-01T12:14:44.749Z,100879.56
2023-12-01T12:17:12.803Z,100887.41
2023-12-01T12:19:50.419Z,100878.91
2023-12-01T12:22:21.949Z,100883.38
2023-12-01T12:24:49.849Z,100872.38
2023-12-01T12:27:17.515Z,100882.91
2023-12-01T12:29:46.336Z,100873.50
2023-12-01T12:32:14.896Z,100880.50
2023-12-01T12:34:43.185Z,100877.88
2023-12-01T12:37:13.651Z,100882.06
2023-12-01T12:39:43.991Z,100889.66
2023-12-01T12:42:17.581Z,100875.66
2023-12-01T12:44:47.039Z,100886.00
2023-12-01T12:47:15.765Z,100887.59
2023-12-01T12:49:44.385Z,100877.19
2023-12-01T12:52:12.383Z,100872.00
2023-12-01T12:54:42.864Z,100880.44
2023-12-01T12:57:10.368Z,100880.44
2023-12-01T12:59:37.915Z,100882.19
2023-12-01T13:02:06.064Z,100873.50
2023-12-01T13:04:33.448Z,100883.09
2023-12-01T13:07:00.646Z,100879.66
2023-12-01T13:09:28.099Z,100881.44
2023-12-01T13:11:55.450Z,100876.31
2023-12-01T13:14:22.656Z,100874.63
2023-12-01T13:16:55.602Z,100892.69
2023-12-01T13:19:27.431Z,100882.38
2023-12-01T13:21:56.446Z,100881.50
2023-12-01T13:24:26.758Z,100884.88
2023-12-01T13:26:55.043Z,100889.28
2023-12-01T13:29:22.163Z,100889.31
2023-12-01T13:31:49.908Z,100887.53
2023-12-01T13:34:17.345Z,100880.75
2023-12-01T13:36:45.923Z,100887.69
2023-12-01T13:39:17.349Z,100888.47
2023-12-01T13:41:44.652Z,100888.44
2023-12-01T13:44:12.088Z,100891.00
2023-12-01T13:46:40.454Z,100877.00
2023-12-01T13:49:08.024Z,100886.47
2023-12-01T13:51:35.635Z,100892.47
2023-12-01T13:54:03.078Z,100885.44
2023-12-01T13:56:30.702Z,100889.84
2023-12-01T13:58:57.989Z,100894.09
2023-12-01T14:01:25.221Z,100894.97
2023-12-01T14:03:52.452Z,100900.09
2023-12-01T14:06:19.813Z,100895.75
2023-12-01T14:08:46.937Z,100905.22
2023-12-01T14:11:14.475Z,100907.81
2023-12-01T14:13:42.243Z,100906.06
2023-12-01T14:16:12.122Z,100851.91
2023-12-01T14:18:39.407Z,100906.84
2023-12-01T14:21:07.741Z,100909.34
2023-12-01T14:23:34.994Z,100915.38
2023-12-01T14:26:02.097Z,100911.78
2023-12-01T14:28:29.593Z,100921.28
2023-12-01T14:30:57.399Z,100909.97
2023-12-01T14:33:25.062Z,100911.69
2023-12-01T14:35:52.421Z,100909.09
2023-12-01T14:38:20.272Z,100916.00
2023-12-01T14:40:47.651Z,100917.66
2023-12-01T14:43:14.820Z,100910.69
2023-12-01T14:45:42.707Z,100914.09
2023-12-01T14:48:10.688Z,100907.97
2023-12-01T14:50:37.865Z,100903.53
2023-12-01T14:53:04.959Z,100913.19
2023-12-01T14:55:32.053Z,100919.22
2023-12-01T14:58:00.526Z,100922.63
2023-12-01T15:00:27.748Z,100936.38
2023-12-01T15:02:55.024Z,100934.56
2023-12-01T15:05:22.213Z,100928.50
2023-12-01T15:07:49.522Z,100928.44
2023-12-01T15:10:16.774Z,100919.81
2023-12-01T15:12:43.804Z,100916.28
2023-12-01T15:15:11.540Z,100904.13
2023-12-01T15:17:38.760Z,100911.03
2023-12-01T15:20:06.801Z,100909.28
2023-12-01T15:22:33.927Z,100909.34
2023-12-01T15:25:01.229Z,100911.91
2023-12-01T15:27:28.591Z,100925.78
2023-12-01T15:29:56.807Z,100927.44
2023-12-01T15:32:24.049Z,100906.59
2023-12-01T15:34:51.162Z,100920.44
2023-12-01T15:37:18.720Z,100933.38
2023-12-01T15:39:45.923Z,100926.44
2023-12-01T15:42:13.949Z,100929.84
2023-12-01T15:44:43.430Z,100928.97
2023-12-01T15:47:11.040Z,100927.22
2023-12-01T15:49:38.691Z,100936.72
2023-12-01T15:52:07.850Z,100934.13
2023-12-01T15:54:36.193Z,100930.66
2023-12-01T15:57:03.646Z,100937.56
2023-12-01T15:59:31.012Z,100930.66
2023-12-01T16:01:58.512Z,100938.44
2023-12-01T16:04:25.571Z,100936.72
2023-12-01T16:06:52.640Z,100939.31
2023-12-01T16:09:19.730Z,100940.16
2023-12-01T16:11:47.751Z,100928.09
2023-12-01T16:14:14.867Z,100938.53
2023-12-01T16:16:42.817Z,100940.31
2023-12-01T16:19:10.537Z,100942.91
2023-12-01T16:21:45.027Z,100942.13
2023-12-01T16:24:13.060Z,100938.72
2023-12-01T16:26:40.442Z,100946.50
2023-12-01T16:29:08.763Z,100944.75
2023-12-01T16:31:35.884Z,100943.09
2023-12-01T16:34:03.178Z,100945.66
2023-12-01T16:36:33.248Z,100945.66
2023-12-01T16:39:01.551Z,100942.22
2023-12-01T16:41:28.820Z,100934.25
2023-12-01T16:43:55.913Z,100946.53
2023-12-01T16:46:23.177Z,100956.00
2023-12-01T16:48:50.444Z,100955.16
2023-12-01T16:51:18.130Z,100968.94
2023-12-01T16:53:46.559Z,100961.22
2023-12-01T16:56:15.535Z,100973.31
2023-12-01T16:58:44.834Z,100972.47
2023-12-01T17:01:12.200Z,100981.09
2023-12-01T17:03:39.655Z,100970.72
2023-12-01T17:06:07.927Z,100972.34
2023-12-01T17:08:35.407Z,100975.88
2023-12-01T17:11:03.231Z,100978.50
2023-12-01T17:13:31.809Z,100982.84
2023-12-01T17:15:59.002Z,100980.22
2023-12-01T17:18:26.349Z,100992.34
2023-12-01T17:20:53.773Z,100979.44
2023-12-01T17:23:21.079Z,100994.09
2023-12-01T17:25:48.546Z,100994.09
2023-12-01T17:28:15.770Z,100995.78
2023-12-01T17:30:42.858Z,100994.09
2023-12-01T17:33:11.131Z,100981.88
2023-12-01T17:35:38.329Z,100989.63
2023-12-01T17:38:05.453Z,100998.25
2023-12-01T17:40:32.615Z,101000.13
2023-12-01T17:42:59.799Z,101000.13
2023-12-01T17:45:27.398Z,100989.63
2023-12-01T17:47:54.616Z,101001.81
2023-12-01T17:50:21.753Z,101002.69
2023-12-01T17:52:48.830Z,101000.94
2023-12-01T17:55:16.001Z,100998.31
2023-12-01T17:57:43.378Z,100997.44
2023-12-01T18:00:11.366Z,100995.75
2023-12-01T18:02:38.665Z,100990.41
2023-12-01T18:05:06.263Z,100985.16
2023-12-01T18:07:33.441Z,100986.84
2023-12-01T18:10:00.552Z,100986.00
2023-12-01T18:12:27.714Z,100990.41
2023-12-01T18:14:54.947Z,100999.88
2023-12-01T18:17:22.074Z,100992.88
2023-12-01T18:19:49.205Z,101005.03
2023-12-01T18:22:16.431Z,101003.31
2023-12-01T18:24:43.573Z,101007.53
2023-12-01T18:27:14.038Z,101011.06
2023-12-01T18:29:41.321Z,101010.97
2023-12-01T18:32:08.454Z,101026.56
2023-12-01T18:34:35.633Z,101006.53
2023-12-01T18:37:02.905Z,101031.72
2023-12-01T18:39:30.233Z,101037.75
2023-12-01T18:41:58.989Z,101033.41
2023-12-01T18:44:26.185Z,101030.84
2023-12-01T18:46:53.889Z,101032.53
2023-12-01T18:49:21.131Z,101033.34
2023-12-01T18:51:48.464Z,101032.50
2023-12-01T18:54:15.950Z,101023.69
2023-12-01T18:56:43.366Z,101027.16
2023-12-01T18:59:10.965Z,101037.44
2023-12-01T19:01:39.415Z,101035.69
2023-12-01T19:04:06.947Z,101037.44
2023-12-01T19:06:34.321Z,101032.28
2023-12-01T19:09:01.989Z,101029.66
2023-12-01T19:11:29.234Z,101023.53
2023-12-01T19:13:56.583Z,101012.25
2023-12-01T19:16:23.831Z,101014.00
2023-12-01T19:18:51.106Z,101020.06
2023-12-01T19:21:18.355Z,101021.78
2023-12-01T19:23:45.568Z,101007.13
2023-12-01T19:26:12.753Z,101010.69
2023-12-01T19:28:39.848Z,101009.72
2023-12-01T19:31:07.281Z,101002.94
2023-12-01T19:33:34.709Z,100998.59
2023-12-01T19:36:06.339Z,101008.06
2023-12-01T19:38:34.219Z,101005.59
2023-12-01T19:41:01.358Z,100949.78
2023-12-01T19:43:28.606Z,101009.97
2023-12-01T19:45:56.298Z,101004.81
2023-12-01T19:48:25.038Z,101001.28
2023-12-01T19:50:52.599Z,100989.06
2023-12-01T19:53:20.171Z,100992.66
2023-12-01T19:55:48.897Z,101006.59
2023-12-01T19:58:16.221Z,101009.19
2023-12-01T20:00:43.344Z,100941.31
2023-12-01T20:03:10.434Z,100983.28
2023-12-01T20:05:37.862Z,100998.13
2023-12-01T20:08:06.796Z,100999.88
2023-12-01T20:10:36.411Z,100992.94
2023-12-01T20:13:04.455Z,100995.56
2023-12-01T20:15:31.592Z,100995.59
2023-12-01T20:18:01.215Z,100998.16
2023-12-01T20:20:28.598Z,101002.50
2023-12-01T20:22:55.922Z,100992.06
2023-12-01T20:25:23.366Z,100990.41
2023-12-01T20:27:50.540Z,100998.16
2023-12-01T20:30:17.954Z,100999.13
2023-12-01T20:32:45.339Z,101008.56
2023-12-01T20:35:12.870Z,101015.44
2023-12-01T20:37:40.016Z,101015.41
2023-12-01T20:40:08.465Z,101015.41
2023-12-01T20:42:35.681Z,101005.06
2023-12-01T20:45:03.148Z,101016.28
2023-12-01T20:47:30.515Z,101003.28
2023-12-01T20:49:57.660Z,100977.03
2023-12-01T20:52:24.789Z,101022.28
2023-12-01T20:54:51.990Z,101008.50
2023-12-01T20:57:19.258Z,101004.13
2023-12-01T20:59:46.523Z,101020.66
2023-12-01T21:02:13.639Z,101023.31
2023-12-01T21:04:40.894Z,101019.91
2023-12-01T21:07:08.548Z,101013.91
2023-12-01T21:09:35.748Z,101008.66
2023-12-01T21:12:03.664Z,101009.53
2023-12-01T21:14:30.854Z,101021.72
2023-12-01T21:16:57.949Z,101018.31
2023-12-01T21:19:25.257Z,101022.66
2023-12-01T21:21:52.419Z,101024.44
2023-12-01T21:24:19.639Z,101027.00
2023-12-01T21:26:49.847Z,101023.47
2023-12-01T21:29:17.328Z,101030.47
2023-12-01T21:31:44.821Z,101015.78
2023-12-01T21:34:13.349Z,101017.38
2023-12-01T21:36:46.717Z,101030.47
2023-12-01T21:39:16.833Z,101029.66
2023-12-01T21:41:44.193Z,101027.00
2023-12-01T21:44:11.698Z,101033.06
2023-12-01T21:46:39.319Z,101039.97
2023-12-01T21:49:07.052Z,101039.97
2023-12-01T21:51:35.093Z,101040.81
2023-12-01T21:54:02.544Z,101037.44
2023-12-01T21:56:29.733Z,101034.81
2023-12-01T21:58:57.013Z,101038.22
2023-12-01T22:01:24.329Z,101029.59
2023-12-01T22:03:51.563Z,101039.16
2023-12-01T22:06:18.816Z,101038.31
2023-12-01T22:08:46.116Z,101037.44
2023-12-01T22:11:13.366Z,101017.38
2023-12-01T22:13:40.662Z,101046.06
2023-12-01T22:16:08.934Z,101039.84
2023-12-01T22:18:36.249Z,101051.19
2023-12-01T22:21:03.611Z,101054.59
2023-12-01T22:23:30.809Z,101056.31
2023-12-01T22:25:57.949Z,101049.28
2023-12-01T22:28:25.130Z,101056.25
2023-12-01T22:30:52.361Z,101063.84
2023-12-01T22:33:19.603Z,101057.75
2023-12-01T22:35:46.900Z,101060.28
2023-12-01T22:38:14.133Z,101068.84
2023-12-01T22:40:41.446Z,101066.19
2023-12-01T22:43:08.875Z,101068.72
2023-12-01T22:45:36.082Z,101065.22
2023-12-01T22:48:03.674Z,101072.03
2023-12-01T22:50:34.154Z,101057.28
2023-12-01T22:53:01.423Z,101065.19
2023-12-01T22:55:42.939Z,101060.75
2023-12-01T22:58:10.444Z,101060.84
2023-12-01T23:00:37.651Z,101058.31
2023-12-01T23:03:05.199Z,101065.22
2023-12-01T23:05:32.431Z,101064.38
2023-12-01T23:07:59.667Z,101068.69
2023-12-01T23:10:26.809Z,101062.59
2023-12-01T23:12:54.086Z,101066.00
2023-12-01T23:15:21.448Z,101076.34
2023-12-01T23:17:57.684Z,101072.03
2023-12-01T23:20:28.709Z,101058.91
2023-12-01T23:22:56.405Z,101064.25
2023-12-01T23:25:23.547Z,101054.59
2023-12-01T23:27:50.959Z,101083.16
2023-12-01T23:30:18.559Z,101055.31
2023-12-01T23:32:46.109Z,101090.06
2023-12-01T23:35:13.352Z,101082.31
2023-12-01T23:37:40.430Z,101064.13
2023-12-01T23:40:08.486Z,101073.72
2023-12-01T23:42:36.034Z,101078.03
2023-12-01T23:45:03.688Z,101076.28
2023-12-01T23:47:31.026Z,101070.22
2023-12-01T23:49:58.190Z,101073.72
2023-12-01T23:52:25.293Z,101072.88
2023-12-01T23:54:52.367Z,101061.69
2023-12-01T23:57:20.224Z,101065.13
2023-12-01T23:59:47.325Z,101042.66
